This is the latest recevied weather packets stored in our database for station/object GW1601. If no packets are shown the sender has not sent any weather packets the latest 10 day(s).
| Time | Temp. | Humidity | Pressure | Rain* | Wind** | Luminosity | Snow |
|---|---|---|---|---|---|---|---|
| 1777470713 | 16.67° C | 92% | 984.7 hPa | 0 mm | - | - | - |
| 1777469237 | 16.67° C | 92% | 985.1 hPa | 0 mm | - | - | - |
| 1777468902 | 16.11° C | 92% | 984.7 hPa | 0 mm | - | - | - |
| 1777468160 | 16.11° C | 94% | 984.7 hPa | 0 mm | - | - | - |
| 1777463144 | 13.33° C | 99% | 985.1 hPa | 0 mm | - | - | - |
| 1777459181 | 13.33° C | 98% | 985.4 hPa | 0 mm | - | - | - |
| 1777455211 | 13.33° C | 99% | 985.7 hPa | 0 mm | - | - | - |
| 1777454128 | 13.33° C | 99% | 986.1 hPa | 0 mm | - | - | - |
| 1777452313 | 12.78° C | 99% | 985.4 hPa | 0 mm | - | - | - |
| 1777450150 | 12.78° C | 99% | 985.4 hPa | 0 mm | - | - | - |
| 1777449460 | 12.78° C | 99% | 985.4 hPa | 0 mm | - | - | - |
| 1777449099 | 12.78° C | 99% | 985.4 hPa | 0 mm | - | - | - |
| 1777437932 | 13.33° C | 99% | 987.4 hPa | 0 mm | - | - | - |
| 1777435752 | 13.33° C | 99% | 987.4 hPa | 0 mm | - | - | - |
| 1777434673 | 13.89° C | 99% | 987.8 hPa | 18.8 mm | - | - | - |
| 1777432540 | 13.89° C | 99% | 987.8 hPa | 18.8 mm | - | - | - |
| 1777431091 | 14.44° C | 99% | 988.4 hPa | 18.8 mm | - | - | - |
| 1777427123 | 15.56° C | 95% | 988.1 hPa | 18.8 mm | - | - | - |
| 1777426061 | 15.56° C | 94% | 988.4 hPa | 18.8 mm | - | - | - |
| 1777425343 | 16.11° C | 93% | 987.8 hPa | 18.8 mm | - | - | - |
| 1777423167 | 17.78° C | 87% | 987.4 hPa | 18.8 mm | - | - | - |
| 1777336780 | 18.89° C | 69% | 989.1 hPa | 0 mm | - | - | - |
| 1777336050 | 19.44° C | 68% | 989.5 hPa | 0 mm | - | - | - |
| 1777326860 | 25° C | 48% | 989.5 hPa | 0 mm | - | - | - |
| 1777326170 | 25° C | 49% | 989.8 hPa | 0 mm | - | - | - |
* Rain since midnight (hover to see other rain measurements)
** Current wind speed in m/s (hover to see current wind gust speed)